sensor_id;sensor_type;location;lat;lon;timestamp;P1;P2;P0
69346;PMS5003;56494;43.536;5.048;2022-07-29T00:02:14;4.60;4.00;3.00
69346;PMS5003;56494;43.536;5.048;2022-07-29T00:04:40;5.60;5.60;4.00
69346;PMS5003;56494;43.536;5.048;2022-07-29T00:07:07;6.00;6.00;4.00
69346;PMS5003;56494;43.536;5.048;2022-07-29T00:09:35;5.00;5.00;3.40
69346;PMS5003;56494;43.536;5.048;2022-07-29T00:12:17;5.60;5.60;3.60
69346;PMS5003;56494;43.536;5.048;2022-07-29T00:14:54;6.00;6.00;4.00
69346;PMS5003;56494;43.536;5.048;2022-07-29T00:17:22;7.60;5.00;4.00
69346;PMS5003;56494;43.536;5.048;2022-07-29T00:19:48;5.40;5.40;4.00
69346;PMS5003;56494;43.536;5.048;2022-07-29T00:22:15;6.20;6.20;4.20
69346;PMS5003;56494;43.536;5.048;2022-07-29T00:24:42;7.00;7.00;5.00
69346;PMS5003;56494;43.536;5.048;2022-07-29T00:27:08;6.00;6.00;5.00
69346;PMS5003;56494;43.536;5.048;2022-07-29T00:29:35;9.00;7.00;5.00
69346;PMS5003;56494;43.536;5.048;2022-07-29T00:32:02;6.20;5.40;4.40
69346;PMS5003;56494;43.536;5.048;2022-07-29T00:34:29;8.40;7.00;4.00
69346;PMS5003;56494;43.536;5.048;2022-07-29T00:37:14;9.00;7.00;6.00
69346;PMS5003;56494;43.536;5.048;2022-07-29T00:39:40;10.00;8.50;5.50
69346;PMS5003;56494;43.536;5.048;2022-07-29T00:42:07;6.60;6.60;4.60
69346;PMS5003;56494;43.536;5.048;2022-07-29T00:44:40;6.40;6.40;4.40
69346;PMS5003;56494;43.536;5.048;2022-07-29T00:47:08;6.00;6.00;4.00
69346;PMS5003;56494;43.536;5.048;2022-07-29T00:49:35;10.60;7.00;5.00
69346;PMS5003;56494;43.536;5.048;2022-07-29T00:52:03;5.50;5.50;4.25
69346;PMS5003;56494;43.536;5.048;2022-07-29T00:54:30;7.25;6.25;5.00
69346;PMS5003;56494;43.536;5.048;2022-07-29T00:56:57;7.25;6.00;4.25
69346;PMS5003;56494;43.536;5.048;2022-07-29T00:59:25;5.80;5.80;3.80
69346;PMS5003;56494;43.536;5.048;2022-07-29T01:02:00;6.00;6.00;4.00
69346;PMS5003;56494;43.536;5.048;2022-07-29T01:04:27;6.00;6.00;4.00
69346;PMS5003;56494;43.536;5.048;2022-07-29T01:06:56;7.50;7.50;5.00
69346;PMS5003;56494;43.536;5.048;2022-07-29T01:09:22;7.00;7.00;4.00
69346;PMS5003;56494;43.536;5.048;2022-07-29T01:12:10;8.40;6.60;5.00
69346;PMS5003;56494;43.536;5.048;2022-07-29T01:14:36;7.25;5.00;4.25
69346;PMS5003;56494;43.536;5.048;2022-07-29T01:30:01;5.00;5.00;3.60
69346;PMS5003;56494;43.536;5.048;2022-07-29T01:32:31;6.75;6.75;4.25
69346;PMS5003;56494;43.536;5.048;2022-07-29T01:40:35;6.00;6.00;4.00
69346;PMS5003;56494;43.536;5.048;2022-07-29T01:43:12;5.40;5.40;5.00
69346;PMS5003;56494;43.536;5.048;2022-07-29T01:45:41;7.25;5.50;3.50
69346;PMS5003;56494;43.536;5.048;2022-07-29T01:48:22;5.00;5.00;3.33
69346;PMS5003;56494;43.536;5.048;2022-07-29T01:51:02;8.40;7.20;5.20
69346;PMS5003;56494;43.536;5.048;2022-07-29T01:53:36;8.80;6.80;4.80
69346;PMS5003;56494;43.536;5.048;2022-07-29T01:56:04;8.40;7.00;5.00
69346;PMS5003;56494;43.536;5.048;2022-07-29T01:58:33;8.60;7.20;5.20
69346;PMS5003;56494;43.536;5.048;2022-07-29T02:01:01;7.00;7.00;5.00
69346;PMS5003;56494;43.536;5.048;2022-07-29T02:03:29;6.40;5.60;4.00
69346;PMS5003;56494;43.536;5.048;2022-07-29T02:05:57;6.50;6.50;4.75
69346;PMS5003;56494;43.536;5.048;2022-07-29T02:08:24;7.00;7.00;5.00
69346;PMS5003;56494;43.536;5.048;2022-07-29T02:10:51;6.60;6.60;4.60
69346;PMS5003;56494;43.536;5.048;2022-07-29T02:13:19;6.00;6.00;5.00
69346;PMS5003;56494;43.536;5.048;2022-07-29T02:15:46;6.20;6.20;5.20
69346;PMS5003;56494;43.536;5.048;2022-07-29T02:18:15;4.20;4.20;4.00
69346;PMS5003;56494;43.536;5.048;2022-07-29T02:20:49;6.00;4.50;3.50
69346;PMS5003;56494;43.536;5.048;2022-07-29T02:23:20;8.40;6.80;4.60
69346;PMS5003;56494;43.536;5.048;2022-07-29T02:25:54;5.00;5.00;3.00
69346;PMS5003;56494;43.536;5.048;2022-07-29T02:28:22;7.80;5.40;4.00
69346;PMS5003;56494;43.536;5.048;2022-07-29T02:30:51;5.00;5.00;5.00
69346;PMS5003;56494;43.536;5.048;2022-07-29T02:33:18;8.60;5.40;3.40
69346;PMS5003;56494;43.536;5.048;2022-07-29T02:35:46;7.00;7.00;5.00
69346;PMS5003;56494;43.536;5.048;2022-07-29T02:38:15;8.80;6.80;4.80
69346;PMS5003;56494;43.536;5.048;2022-07-29T02:41:01;8.80;6.20;4.80
69346;PMS5003;56494;43.536;5.048;2022-07-29T02:43:29;6.40;6.40;5.00
69346;PMS5003;56494;43.536;5.048;2022-07-29T02:45:56;10.00;8.00;5.00
69346;PMS5003;56494;43.536;5.048;2022-07-29T02:48:27;10.00;7.00;5.00
69346;PMS5003;56494;43.536;5.048;2022-07-29T02:51:01;8.40;7.00;5.00
69346;PMS5003;56494;43.536;5.048;2022-07-29T02:53:31;6.00;6.00;5.00
69346;PMS5003;56494;43.536;5.048;2022-07-29T02:56:00;7.00;7.00;5.20
69346;PMS5003;56494;43.536;5.048;2022-07-29T02:58:32;8.75;7.75;5.00
69346;PMS5003;56494;43.536;5.048;2022-07-29T03:01:01;8.50;7.00;5.00
69346;PMS5003;56494;43.536;5.048;2022-07-29T03:03:31;6.00;6.00;4.00
69346;PMS5003;56494;43.536;5.048;2022-07-29T03:05:59;7.20;7.20;5.00
69346;PMS5003;56494;43.536;5.048;2022-07-29T03:08:27;6.00;6.00;5.00
69346;PMS5003;56494;43.536;5.048;2022-07-29T03:10:54;21.00;9.60;6.20
69346;PMS5003;56494;43.536;5.048;2022-07-29T03:13:21;7.75;7.75;4.75
69346;PMS5003;56494;43.536;5.048;2022-07-29T03:15:48;6.00;6.00;5.25
69346;PMS5003;56494;43.536;5.048;2022-07-29T03:18:15;8.00;8.00;6.00
69346;PMS5003;56494;43.536;5.048;2022-07-29T03:20:42;7.75;7.75;5.50
69346;PMS5003;56494;43.536;5.048;2022-07-29T03:23:09;8.60;7.60;6.20
69346;PMS5003;56494;43.536;5.048;2022-07-29T03:25:35;7.00;7.00;4.00
69346;PMS5003;56494;43.536;5.048;2022-07-29T03:28:02;8.00;6.00;4.00
69346;PMS5003;56494;43.536;5.048;2022-07-29T03:30:29;8.00;7.00;5.00
69346;PMS5003;56494;43.536;5.048;2022-07-29T03:32:57;7.25;7.25;6.00
69346;PMS5003;56494;43.536;5.048;2022-07-29T03:35:24;7.00;7.00;5.00
69346;PMS5003;56494;43.536;5.048;2022-07-29T03:37:51;9.00;8.00;5.80
69346;PMS5003;56494;43.536;5.048;2022-07-29T03:40:19;6.75;6.00;4.00
69346;PMS5003;56494;43.536;5.048;2022-07-29T03:42:46;10.00;9.00;6.00
69346;PMS5003;56494;43.536;5.048;2022-07-29T03:45:13;8.00;8.00;5.25
69346;PMS5003;56494;43.536;5.048;2022-07-29T03:47:42;9.00;8.25;5.50
69346;PMS5003;56494;43.536;5.048;2022-07-29T03:50:17;6.00;6.00;4.00
69346;PMS5003;56494;43.536;5.048;2022-07-29T03:52:45;10.80;7.80;5.20
69346;PMS5003;56494;43.536;5.048;2022-07-29T03:55:13;9.00;9.00;6.00
69346;PMS5003;56494;43.536;5.048;2022-07-29T03:57:40;8.00;7.20;6.20
69346;PMS5003;56494;43.536;5.048;2022-07-29T04:00:07;22.60;7.00;4.60
69346;PMS5003;56494;43.536;5.048;2022-07-29T04:02:35;9.00;7.40;5.00
69346;PMS5003;56494;43.536;5.048;2022-07-29T04:05:02;12.00;7.50;6.00
69346;PMS5003;56494;43.536;5.048;2022-07-29T04:07:29;6.25;5.00;3.25
69346;PMS5003;56494;43.536;5.048;2022-07-29T04:09:56;12.00;8.00;6.80
69346;PMS5003;56494;43.536;5.048;2022-07-29T04:12:22;7.00;7.00;5.00
69346;PMS5003;56494;43.536;5.048;2022-07-29T04:14:49;8.50;7.00;5.00
69346;PMS5003;56494;43.536;5.048;2022-07-29T04:17:16;9.00;7.75;5.75
69346;PMS5003;56494;43.536;5.048;2022-07-29T04:19:43;11.60;10.00;6.00
69346;PMS5003;56494;43.536;5.048;2022-07-29T04:22:09;7.40;7.40;4.80
69346;PMS5003;56494;43.536;5.048;2022-07-29T04:24:36;7.00;7.00;5.40
69346;PMS5003;56494;43.536;5.048;2022-07-29T04:27:02;7.00;7.00;5.60
69346;PMS5003;56494;43.536;5.048;2022-07-29T04:29:29;12.00;9.00;7.00
69346;PMS5003;56494;43.536;5.048;2022-07-29T04:31:56;8.25;6.25;5.00
69346;PMS5003;56494;43.536;5.048;2022-07-29T04:34:22;17.60;7.00;6.00
69346;PMS5003;56494;43.536;5.048;2022-07-29T04:36:53;9.00;9.00;6.00
69346;PMS5003;56494;43.536;5.048;2022-07-29T04:39:20;13.50;11.50;8.50
69346;PMS5003;56494;43.536;5.048;2022-07-29T04:41:48;15.40;15.40;10.40
69346;PMS5003;56494;43.536;5.048;2022-07-29T04:44:17;9.20;8.00;6.00
69346;PMS5003;56494;43.536;5.048;2022-07-29T04:46:45;7.50;7.50;5.00
69346;PMS5003;56494;43.536;5.048;2022-07-29T04:49:11;15.25;11.75;9.00
69346;PMS5003;56494;43.536;5.048;2022-07-29T04:51:39;12.40;11.00;7.40
69346;PMS5003;56494;43.536;5.048;2022-07-29T04:54:06;11.60;10.60;7.00
69346;PMS5003;56494;43.536;5.048;2022-07-29T04:56:32;11.00;11.00;7.00
69346;PMS5003;56494;43.536;5.048;2022-07-29T04:58:59;15.00;12.00;8.00
69346;PMS5003;56494;43.536;5.048;2022-07-29T05:01:25;11.00;8.00;6.20
69346;PMS5003;56494;43.536;5.048;2022-07-29T05:03:57;19.80;15.80;9.80
69346;PMS5003;56494;43.536;5.048;2022-07-29T05:06:26;16.00;12.50;10.00
69346;PMS5003;56494;43.536;5.048;2022-07-29T05:08:52;11.75;11.75;6.75
69346;PMS5003;56494;43.536;5.048;2022-07-29T05:11:19;12.75;8.75;6.75
69346;PMS5003;56494;43.536;5.048;2022-07-29T05:13:48;8.50;8.50;5.50
69346;PMS5003;56494;43.536;5.048;2022-07-29T05:16:14;6.75;6.75;5.25
69346;PMS5003;56494;43.536;5.048;2022-07-29T05:18:41;8.75;7.25;4.50
69346;PMS5003;56494;43.536;5.048;2022-07-29T05:21:08;7.75;7.75;4.00
69346;PMS5003;56494;43.536;5.048;2022-07-29T05:23:35;10.50;7.50;5.00
69346;PMS5003;56494;43.536;5.048;2022-07-29T05:26:03;8.60;8.00;6.00
69346;PMS5003;56494;43.536;5.048;2022-07-29T05:28:32;7.00;7.00;5.00
69346;PMS5003;56494;43.536;5.048;2022-07-29T05:30:59;7.80;6.80;5.00
69346;PMS5003;56494;43.536;5.048;2022-07-29T05:33:26;9.00;8.00;4.50
69346;PMS5003;56494;43.536;5.048;2022-07-29T05:36:01;9.25;8.00;5.00
69346;PMS5003;56494;43.536;5.048;2022-07-29T05:38:28;11.00;9.00;5.50
69346;PMS5003;56494;43.536;5.048;2022-07-29T05:40:56;9.50;8.00;6.00
69346;PMS5003;56494;43.536;5.048;2022-07-29T05:43:22;12.50;8.00;6.50
69346;PMS5003;56494;43.536;5.048;2022-07-29T05:45:49;9.00;7.00;5.00
69346;PMS5003;56494;43.536;5.048;2022-07-29T05:48:16;10.20;7.20;5.80
69346;PMS5003;56494;43.536;5.048;2022-07-29T05:50:45;8.50;7.50;6.00
69346;PMS5003;56494;43.536;5.048;2022-07-29T05:54:17;11.60;7.60;5.20
69346;PMS5003;56494;43.536;5.048;2022-07-29T05:56:55;9.00;9.00;6.00
69346;PMS5003;56494;43.536;5.048;2022-07-29T05:59:38;9.00;7.80;5.40
69346;PMS5003;56494;43.536;5.048;2022-07-29T06:02:05;11.40;9.00;7.00
69346;PMS5003;56494;43.536;5.048;2022-07-29T06:04:40;6.60;6.40;5.00
69346;PMS5003;56494;43.536;5.048;2022-07-29T06:07:26;12.00;8.00;5.75
69346;PMS5003;56494;43.536;5.048;2022-07-29T06:09:53;7.00;7.00;4.33
69346;PMS5003;56494;43.536;5.048;2022-07-29T06:15:48;11.00;8.60;5.00
69346;PMS5003;56494;43.536;5.048;2022-07-29T06:18:18;10.20;9.00;6.00
69346;PMS5003;56494;43.536;5.048;2022-07-29T06:20:54;10.40;9.00;6.80
69346;PMS5003;56494;43.536;5.048;2022-07-29T06:23:21;7.80;7.20;5.20
69346;PMS5003;56494;43.536;5.048;2022-07-29T06:25:56;6.00;6.00;5.00
69346;PMS5003;56494;43.536;5.048;2022-07-29T06:28:50;9.00;9.00;6.00
69346;PMS5003;56494;43.536;5.048;2022-07-29T06:31:16;9.20;9.00;6.00
69346;PMS5003;56494;43.536;5.048;2022-07-29T06:33:43;9.60;7.60;4.60
69346;PMS5003;56494;43.536;5.048;2022-07-29T06:36:10;9.00;8.00;6.50
69346;PMS5003;56494;43.536;5.048;2022-07-29T06:38:37;12.00;9.00;7.00
69346;PMS5003;56494;43.536;5.048;2022-07-29T06:41:10;11.75;8.75;6.00
69346;PMS5003;56494;43.536;5.048;2022-07-29T06:43:39;5.80;5.80;4.00
69346;PMS5003;56494;43.536;5.048;2022-07-29T06:46:18;5.60;5.60;4.60
69346;PMS5003;56494;43.536;5.048;2022-07-29T06:48:45;9.60;8.00;6.00
69346;PMS5003;56494;43.536;5.048;2022-07-29T06:51:14;16.00;6.00;4.00
69346;PMS5003;56494;43.536;5.048;2022-07-29T06:53:41;7.80;7.20;5.60
69346;PMS5003;56494;43.536;5.048;2022-07-29T06:56:28;7.40;7.00;5.00
69346;PMS5003;56494;43.536;5.048;2022-07-29T06:58:55;11.60;6.40;5.00
69346;PMS5003;56494;43.536;5.048;2022-07-29T07:01:21;8.25;7.00;6.00
69346;PMS5003;56494;43.536;5.048;2022-07-29T07:03:48;7.00;7.00;5.00
69346;PMS5003;56494;43.536;5.048;2022-07-29T07:06:15;8.00;7.00;5.00
69346;PMS5003;56494;43.536;5.048;2022-07-29T07:08:42;10.00;7.00;6.00
69346;PMS5003;56494;43.536;5.048;2022-07-29T07:11:08;8.00;8.00;5.00
69346;PMS5003;56494;43.536;5.048;2022-07-29T07:13:35;9.20;8.00;5.00
69346;PMS5003;56494;43.536;5.048;2022-07-29T07:16:02;8.50;8.00;5.00
69346;PMS5003;56494;43.536;5.048;2022-07-29T07:18:29;6.60;5.40;4.40
69346;PMS5003;56494;43.536;5.048;2022-07-29T07:20:56;8.00;8.00;5.00
69346;PMS5003;56494;43.536;5.048;2022-07-29T07:23:23;7.40;7.40;5.40
69346;PMS5003;56494;43.536;5.048;2022-07-29T07:25:51;10.40;9.40;7.00
69346;PMS5003;56494;43.536;5.048;2022-07-29T07:28:18;8.00;7.60;4.60
69346;PMS5003;56494;43.536;5.048;2022-07-29T07:30:50;9.00;7.00;4.00
69346;PMS5003;56494;43.536;5.048;2022-07-29T07:33:17;10.25;6.25;4.50
69346;PMS5003;56494;43.536;5.048;2022-07-29T07:35:44;9.00;6.00;4.00
69346;PMS5003;56494;43.536;5.048;2022-07-29T07:38:11;8.40;8.40;5.60
69346;PMS5003;56494;43.536;5.048;2022-07-29T07:40:37;25.50;9.00;5.50
69346;PMS5003;56494;43.536;5.048;2022-07-29T07:43:05;10.00;7.00;6.00
69346;PMS5003;56494;43.536;5.048;2022-07-29T07:45:31;14.00;8.00;5.50
69346;PMS5003;56494;43.536;5.048;2022-07-29T07:51:02;10.00;9.00;7.00
69346;PMS5003;56494;43.536;5.048;2022-07-29T07:53:30;7.20;7.20;5.00
69346;PMS5003;56494;43.536;5.048;2022-07-29T07:55:57;8.50;7.50;5.00
69346;PMS5003;56494;43.536;5.048;2022-07-29T07:58:38;10.00;8.50;6.50
69346;PMS5003;56494;43.536;5.048;2022-07-29T08:01:05;8.00;8.00;6.40
69346;PMS5003;56494;43.536;5.048;2022-07-29T08:03:32;7.60;7.60;6.60
69346;PMS5003;56494;43.536;5.048;2022-07-29T08:05:59;8.00;8.00;5.50
69346;PMS5003;56494;43.536;5.048;2022-07-29T08:08:25;8.00;7.33;5.33
69346;PMS5003;56494;43.536;5.048;2022-07-29T08:10:52;8.25;8.00;6.00
69346;PMS5003;56494;43.536;5.048;2022-07-29T08:13:19;9.00;7.50;4.50
69346;PMS5003;56494;43.536;5.048;2022-07-29T08:15:49;6.50;6.50;5.25
69346;PMS5003;56494;43.536;5.048;2022-07-29T08:18:39;12.80;8.00;5.20
69346;PMS5003;56494;43.536;5.048;2022-07-29T08:21:06;10.50;9.25;6.25
69346;PMS5003;56494;43.536;5.048;2022-07-29T08:23:33;8.50;7.75;5.00
69346;PMS5003;56494;43.536;5.048;2022-07-29T08:26:14;8.80;6.80;5.40
69346;PMS5003;56494;43.536;5.048;2022-07-29T08:28:42;7.00;7.00;5.00
69346;PMS5003;56494;43.536;5.048;2022-07-29T08:31:12;6.00;6.00;4.00
69346;PMS5003;56494;43.536;5.048;2022-07-29T08:33:39;8.00;6.20;4.20
69346;PMS5003;56494;43.536;5.048;2022-07-29T08:36:06;6.00;6.00;4.00
69346;PMS5003;56494;43.536;5.048;2022-07-29T08:38:33;10.50;8.75;6.00
69346;PMS5003;56494;43.536;5.048;2022-07-29T08:44:48;10.00;8.00;5.00
69346;PMS5003;56494;43.536;5.048;2022-07-29T08:47:17;6.75;6.75;5.00
69346;PMS5003;56494;43.536;5.048;2022-07-29T08:49:44;10.00;8.40;5.40
69346;PMS5003;56494;43.536;5.048;2022-07-29T08:52:13;8.40;6.80;5.00
69346;PMS5003;56494;43.536;5.048;2022-07-29T08:54:42;8.00;8.00;5.40
69346;PMS5003;56494;43.536;5.048;2022-07-29T08:57:12;9.67;7.67;6.00
69346;PMS5003;56494;43.536;5.048;2022-07-29T08:59:45;6.50;6.50;4.00
69346;PMS5003;56494;43.536;5.048;2022-07-29T09:06:29;5.00;5.00;3.00
69346;PMS5003;56494;43.536;5.048;2022-07-29T09:08:59;5.00;5.00;3.50
69346;PMS5003;56494;43.536;5.048;2022-07-29T09:11:26;6.00;6.00;4.60
69346;PMS5003;56494;43.536;5.048;2022-07-29T09:13:53;7.00;7.00;4.00
69346;PMS5003;56494;43.536;5.048;2022-07-29T09:19:34;10.00;8.50;6.00
69346;PMS5003;56494;43.536;5.048;2022-07-29T09:28:35;8.75;6.25;4.75
69346;PMS5003;56494;43.536;5.048;2022-07-29T09:31:14;8.00;6.40;5.00
69346;PMS5003;56494;43.536;5.048;2022-07-29T09:33:47;6.20;6.20;5.20
69346;PMS5003;56494;43.536;5.048;2022-07-29T09:36:16;5.40;5.40;4.20
69346;PMS5003;56494;43.536;5.048;2022-07-29T09:38:56;9.50;9.50;7.00
69346;PMS5003;56494;43.536;5.048;2022-07-29T09:41:54;9.80;8.00;6.00
69346;PMS5003;56494;43.536;5.048;2022-07-29T09:48:37;8.00;8.00;5.00
69346;PMS5003;56494;43.536;5.048;2022-07-29T09:51:36;13.00;8.00;6.00
69346;PMS5003;56494;43.536;5.048;2022-07-29T09:54:34;11.00;9.00;7.50
69346;PMS5003;56494;43.536;5.048;2022-07-29T09:57:24;9.25;6.25;5.25
69346;PMS5003;56494;43.536;5.048;2022-07-29T10:02:26;7.00;7.00;6.00
69346;PMS5003;56494;43.536;5.048;2022-07-29T10:04:54;7.60;7.60;5.00
69346;PMS5003;56494;43.536;5.048;2022-07-29T10:07:20;11.00;9.40;6.80
69346;PMS5003;56494;43.536;5.048;2022-07-29T10:09:55;8.00;8.00;6.00
69346;PMS5003;56494;43.536;5.048;2022-07-29T10:12:23;7.20;6.00;5.00
69346;PMS5003;56494;43.536;5.048;2022-07-29T10:14:51;9.00;7.60;6.00
69346;PMS5003;56494;43.536;5.048;2022-07-29T10:17:22;8.00;7.75;5.50
69346;PMS5003;56494;43.536;5.048;2022-07-29T10:19:49;9.00;7.00;6.00
69346;PMS5003;56494;43.536;5.048;2022-07-29T10:22:16;8.50;8.50;7.25
69346;PMS5003;56494;43.536;5.048;2022-07-29T10:25:03;10.25;8.25;7.00
69346;PMS5003;56494;43.536;5.048;2022-07-29T10:27:31;9.00;8.00;5.00
69346;PMS5003;56494;43.536;5.048;2022-07-29T10:29:58;13.40;10.40;7.00
69346;PMS5003;56494;43.536;5.048;2022-07-29T10:37:45;13.20;10.80;8.20
69346;PMS5003;56494;43.536;5.048;2022-07-29T10:43:09;13.50;11.75;7.75
69346;PMS5003;56494;43.536;5.048;2022-07-29T10:45:41;11.00;11.00;8.00
69346;PMS5003;56494;43.536;5.048;2022-07-29T10:48:08;9.40;9.00;7.00
69346;PMS5003;56494;43.536;5.048;2022-07-29T10:53:22;11.00;10.00;8.40
69346;PMS5003;56494;43.536;5.048;2022-07-29T10:55:51;13.00;13.00;9.40
69346;PMS5003;56494;43.536;5.048;2022-07-29T10:58:19;10.00;9.00;6.00
69346;PMS5003;56494;43.536;5.048;2022-07-29T11:00:47;14.25;11.25;8.75
69346;PMS5003;56494;43.536;5.048;2022-07-29T11:06:01;15.00;12.00;9.00
69346;PMS5003;56494;43.536;5.048;2022-07-29T11:08:33;13.75;11.00;8.00
69346;PMS5003;56494;43.536;5.048;2022-07-29T11:13:48;11.75;11.75;9.00
69346;PMS5003;56494;43.536;5.048;2022-07-29T11:16:18;12.80;10.60;7.60
69346;PMS5003;56494;43.536;5.048;2022-07-29T11:21:51;11.40;10.00;7.00
69346;PMS5003;56494;43.536;5.048;2022-07-29T11:24:31;15.20;13.80;9.20
69346;PMS5003;56494;43.536;5.048;2022-07-29T11:27:18;12.80;12.00;9.00
69346;PMS5003;56494;43.536;5.048;2022-07-29T11:29:55;13.20;11.20;9.20
69346;PMS5003;56494;43.536;5.048;2022-07-29T11:36:12;14.00;13.00;10.00
69346;PMS5003;56494;43.536;5.048;2022-07-29T11:38:42;11.50;11.50;8.00
69346;PMS5003;56494;43.536;5.048;2022-07-29T11:46:15;17.00;13.40;10.80
69346;PMS5003;56494;43.536;5.048;2022-07-29T11:48:50;11.00;11.00;7.00
69346;PMS5003;56494;43.536;5.048;2022-07-29T11:51:17;13.50;11.50;8.00
69346;PMS5003;56494;43.536;5.048;2022-07-29T11:53:58;20.00;13.50;9.75
69346;PMS5003;56494;43.536;5.048;2022-07-29T11:56:31;11.80;10.00;7.80
69346;PMS5003;56494;43.536;5.048;2022-07-29T11:59:05;11.80;9.00;8.00
69346;PMS5003;56494;43.536;5.048;2022-07-29T12:01:33;10.00;10.00;7.00
69346;PMS5003;56494;43.536;5.048;2022-07-29T12:04:06;11.60;9.60;7.00
69346;PMS5003;56494;43.536;5.048;2022-07-29T12:06:34;9.00;9.00;6.00
69346;PMS5003;56494;43.536;5.048;2022-07-29T12:09:08;10.60;10.60;7.40
69346;PMS5003;56494;43.536;5.048;2022-07-29T12:11:39;11.80;10.60;7.80
69346;PMS5003;56494;43.536;5.048;2022-07-29T12:14:23;15.00;11.00;8.00
69346;PMS5003;56494;43.536;5.048;2022-07-29T12:16:50;8.40;8.40;6.40
69346;PMS5003;56494;43.536;5.048;2022-07-29T12:19:17;11.40;9.80;7.00
69346;PMS5003;56494;43.536;5.048;2022-07-29T12:24:21;8.40;8.40;6.00
69346;PMS5003;56494;43.536;5.048;2022-07-29T12:26:53;7.20;7.20;5.20
69346;PMS5003;56494;43.536;5.048;2022-07-29T12:29:20;7.00;6.00;5.00
69346;PMS5003;56494;43.536;5.048;2022-07-29T12:31:59;7.50;7.50;5.75
69346;PMS5003;56494;43.536;5.048;2022-07-29T12:34:27;9.00;9.00;7.00
69346;PMS5003;56494;43.536;5.048;2022-07-29T12:36:54;8.00;7.50;6.00
69346;PMS5003;56494;43.536;5.048;2022-07-29T12:39:21;9.25;7.25;6.25
69346;PMS5003;56494;43.536;5.048;2022-07-29T12:41:49;7.75;7.75;6.00
69346;PMS5003;56494;43.536;5.048;2022-07-29T12:44:15;5.40;5.40;4.40
69346;PMS5003;56494;43.536;5.048;2022-07-29T12:46:42;6.00;6.00;5.00
69346;PMS5003;56494;43.536;5.048;2022-07-29T12:49:09;8.00;6.60;5.00
69346;PMS5003;56494;43.536;5.048;2022-07-29T12:51:39;5.60;5.60;4.40
69346;PMS5003;56494;43.536;5.048;2022-07-29T12:54:07;9.00;6.00;5.00
69346;PMS5003;56494;43.536;5.048;2022-07-29T12:56:34;6.50;5.00;3.50
69346;PMS5003;56494;43.536;5.048;2022-07-29T12:59:14;10.00;7.00;5.00
69346;PMS5003;56494;43.536;5.048;2022-07-29T13:01:41;5.25;5.25;4.25
69346;PMS5003;56494;43.536;5.048;2022-07-29T13:04:07;6.20;6.20;4.20
69346;PMS5003;56494;43.536;5.048;2022-07-29T13:06:35;3.40;3.40;2.40
69346;PMS5003;56494;43.536;5.048;2022-07-29T13:11:36;7.00;6.00;5.00
69346;PMS5003;56494;43.536;5.048;2022-07-29T13:14:03;6.00;6.00;4.25
69346;PMS5003;56494;43.536;5.048;2022-07-29T13:16:32;6.40;6.40;5.40
69346;PMS5003;56494;43.536;5.048;2022-07-29T13:19:06;5.50;5.50;3.75
69346;PMS5003;56494;43.536;5.048;2022-07-29T13:21:33;4.75;4.75;3.75
69346;PMS5003;56494;43.536;5.048;2022-07-29T13:24:00;6.00;4.00;3.00
69346;PMS5003;56494;43.536;5.048;2022-07-29T13:26:27;6.00;6.00;5.00
69346;PMS5003;56494;43.536;5.048;2022-07-29T13:28:54;3.00;3.00;2.00
69346;PMS5003;56494;43.536;5.048;2022-07-29T13:31:21;3.00;3.00;3.00
69346;PMS5003;56494;43.536;5.048;2022-07-29T13:33:48;3.00;3.00;2.40
69346;PMS5003;56494;43.536;5.048;2022-07-29T13:36:15;5.50;5.50;4.00
69346;PMS5003;56494;43.536;5.048;2022-07-29T13:38:41;7.33;3.33;2.33
69346;PMS5003;56494;43.536;5.048;2022-07-29T13:41:08;5.00;5.00;3.00
69346;PMS5003;56494;43.536;5.048;2022-07-29T13:43:35;4.40;4.40;3.00
69346;PMS5003;56494;43.536;5.048;2022-07-29T13:46:03;3.00;2.00;1.00
69346;PMS5003;56494;43.536;5.048;2022-07-29T13:48:31;3.00;3.00;2.00
69346;PMS5003;56494;43.536;5.048;2022-07-29T13:50:58;4.00;4.00;3.00
69346;PMS5003;56494;43.536;5.048;2022-07-29T13:53:25;1.60;1.60;1.00
69346;PMS5003;56494;43.536;5.048;2022-07-29T13:55:52;3.00;2.50;2.00
69346;PMS5003;56494;43.536;5.048;2022-07-29T13:58:19;1.00;1.00;1.00
69346;PMS5003;56494;43.536;5.048;2022-07-29T14:00:46;1.20;1.20;0.60
69346;PMS5003;56494;43.536;5.048;2022-07-29T14:03:12;2.40;2.40;1.60
69346;PMS5003;56494;43.536;5.048;2022-07-29T14:05:41;4.00;2.20;2.00
69346;PMS5003;56494;43.536;5.048;2022-07-29T14:08:08;5.00;4.00;3.00
69346;PMS5003;56494;43.536;5.048;2022-07-29T14:10:35;3.00;3.00;1.00
69346;PMS5003;56494;43.536;5.048;2022-07-29T14:13:02;5.00;3.00;3.00
69346;PMS5003;56494;43.536;5.048;2022-07-29T14:15:28;2.00;2.00;2.00
69346;PMS5003;56494;43.536;5.048;2022-07-29T14:17:55;3.00;3.00;2.00
69346;PMS5003;56494;43.536;5.048;2022-07-29T14:20:22;3.00;3.00;2.00
69346;PMS5003;56494;43.536;5.048;2022-07-29T14:22:48;3.00;3.00;2.50
69346;PMS5003;56494;43.536;5.048;2022-07-29T14:25:15;3.00;3.00;2.00
69346;PMS5003;56494;43.536;5.048;2022-07-29T14:27:42;2.75;2.75;2.75
69346;PMS5003;56494;43.536;5.048;2022-07-29T14:30:09;4.20;3.00;3.00
69346;PMS5003;56494;43.536;5.048;2022-07-29T14:32:36;3.00;3.00;3.00
69346;PMS5003;56494;43.536;5.048;2022-07-29T14:35:03;3.00;3.00;3.00
69346;PMS5003;56494;43.536;5.048;2022-07-29T14:37:30;2.00;2.00;1.60
69346;PMS5003;56494;43.536;5.048;2022-07-29T14:40:05;4.80;4.00;3.00
69346;PMS5003;56494;43.536;5.048;2022-07-29T14:42:33;4.00;4.00;3.00
69346;PMS5003;56494;43.536;5.048;2022-07-29T14:45:00;1.00;1.00;1.00
69346;PMS5003;56494;43.536;5.048;2022-07-29T14:47:26;4.50;3.50;3.00
69346;PMS5003;56494;43.536;5.048;2022-07-29T14:49:53;3.80;2.20;1.60
69346;PMS5003;56494;43.536;5.048;2022-07-29T14:52:20;2.00;2.00;1.00
69346;PMS5003;56494;43.536;5.048;2022-07-29T14:54:47;2.80;2.80;1.80
69346;PMS5003;56494;43.536;5.048;2022-07-29T14:57:13;3.80;3.00;2.00
69346;PMS5003;56494;43.536;5.048;2022-07-29T14:59:40;5.00;4.00;3.00
69346;PMS5003;56494;43.536;5.048;2022-07-29T15:02:07;4.40;3.00;2.00
69346;PMS5003;56494;43.536;5.048;2022-07-29T15:04:34;3.00;3.00;2.00
69346;PMS5003;56494;43.536;5.048;2022-07-29T15:07:01;3.00;3.00;2.00
69346;PMS5003;56494;43.536;5.048;2022-07-29T15:09:27;3.00;3.00;3.00
69346;PMS5003;56494;43.536;5.048;2022-07-29T15:11:54;5.00;3.00;2.00
69346;PMS5003;56494;43.536;5.048;2022-07-29T15:14:21;2.60;2.60;2.00
69346;PMS5003;56494;43.536;5.048;2022-07-29T15:16:48;3.40;3.40;2.60
69346;PMS5003;56494;43.536;5.048;2022-07-29T15:19:17;3.50;3.50;3.00
69346;PMS5003;56494;43.536;5.048;2022-07-29T15:21:44;7.00;6.00;4.40
69346;PMS5003;56494;43.536;5.048;2022-07-29T15:24:24;5.00;5.00;4.00
69346;PMS5003;56494;43.536;5.048;2022-07-29T15:26:51;6.00;5.00;4.00
69346;PMS5003;56494;43.536;5.048;2022-07-29T15:29:18;3.80;3.80;2.20
69346;PMS5003;56494;43.536;5.048;2022-07-29T15:31:45;4.25;4.25;3.25
69346;PMS5003;56494;43.536;5.048;2022-07-29T15:34:11;5.20;5.20;3.20
69346;PMS5003;56494;43.536;5.048;2022-07-29T15:36:38;8.00;5.00;4.00
69346;PMS5003;56494;43.536;5.048;2022-07-29T15:39:18;5.20;5.20;3.40
69346;PMS5003;56494;43.536;5.048;2022-07-29T15:41:45;6.00;6.00;4.60
69346;PMS5003;56494;43.536;5.048;2022-07-29T15:44:12;5.20;5.20;4.00
69346;PMS5003;56494;43.536;5.048;2022-07-29T15:46:38;6.40;5.00;3.40
69346;PMS5003;56494;43.536;5.048;2022-07-29T15:49:25;6.60;6.60;5.00
69346;PMS5003;56494;43.536;5.048;2022-07-29T15:52:14;6.00;6.00;5.00
69346;PMS5003;56494;43.536;5.048;2022-07-29T15:54:41;8.00;8.00;4.50
69346;PMS5003;56494;43.536;5.048;2022-07-29T15:57:08;7.00;7.00;4.25